sensor_id;sensor_type;location;lat;lon;timestamp;P1;durP1;ratioP1;P2;durP2;ratioP2
9254;SDS011;4663;49.120;9.730;2023-07-29T00:00:41;33.92;;;31.95;;
9254;SDS011;4663;49.120;9.730;2023-07-29T00:03:07;35.85;;;33.80;;
9254;SDS011;4663;49.120;9.730;2023-07-29T00:05:33;36.28;;;34.22;;
9254;SDS011;4663;49.120;9.730;2023-07-29T00:07:58;34.38;;;32.50;;
9254;SDS011;4663;49.120;9.730;2023-07-29T00:10:23;36.75;;;34.33;;
9254;SDS011;4663;49.120;9.730;2023-07-29T00:12:49;36.75;;;34.55;;
9254;SDS011;4663;49.120;9.730;2023-07-29T00:15:14;36.22;;;34.13;;
9254;SDS011;4663;49.120;9.730;2023-07-29T00:17:40;36.40;;;34.17;;
9254;SDS011;4663;49.120;9.730;2023-07-29T00:20:06;35.30;;;33.10;;
9254;SDS011;4663;49.120;9.730;2023-07-29T00:22:32;34.25;;;32.33;;
9254;SDS011;4663;49.120;9.730;2023-07-29T00:24:57;33.03;;;31.08;;
9254;SDS011;4663;49.120;9.730;2023-07-29T00:27:24;38.80;;;36.80;;
9254;SDS011;4663;49.120;9.730;2023-07-29T00:29:50;43.15;;;40.85;;
9254;SDS011;4663;49.120;9.730;2023-07-29T00:32:15;45.70;;;43.28;;
9254;SDS011;4663;49.120;9.730;2023-07-29T00:34:41;55.28;;;52.45;;
9254;SDS011;4663;49.120;9.730;2023-07-29T00:37:06;60.08;;;56.72;;
9254;SDS011;4663;49.120;9.730;2023-07-29T00:39:32;60.78;;;57.53;;
9254;SDS011;4663;49.120;9.730;2023-07-29T00:41:57;54.03;;;50.88;;
9254;SDS011;4663;49.120;9.730;2023-07-29T00:44:23;49.80;;;47.03;;
9254;SDS011;4663;49.120;9.730;2023-07-29T00:46:49;44.90;;;42.50;;
9254;SDS011;4663;49.120;9.730;2023-07-29T00:49:17;40.85;;;38.72;;
9254;SDS011;4663;49.120;9.730;2023-07-29T00:51:43;39.63;;;37.50;;
9254;SDS011;4663;49.120;9.730;2023-07-29T00:54:08;36.08;;;34.08;;
9254;SDS011;4663;49.120;9.730;2023-07-29T00:56:34;36.83;;;34.80;;
9254;SDS011;4663;49.120;9.730;2023-07-29T00:59:00;35.88;;;33.78;;
9254;SDS011;4663;49.120;9.730;2023-07-29T01:01:27;35.88;;;33.53;;
9254;SDS011;4663;49.120;9.730;2023-07-29T01:03:53;36.97;;;35.00;;
9254;SDS011;4663;49.120;9.730;2023-07-29T01:06:24;35.05;;;33.05;;
9254;SDS011;4663;49.120;9.730;2023-07-29T01:08:53;36.55;;;34.55;;
9254;SDS011;4663;49.120;9.730;2023-07-29T01:11:29;36.55;;;34.38;;
9254;SDS011;4663;49.120;9.730;2023-07-29T01:14:51;36.13;;;33.90;;
9254;SDS011;4663;49.120;9.730;2023-07-29T01:17:08;38.35;;;35.85;;
9254;SDS011;4663;49.120;9.730;2023-07-29T01:20:00;35.35;;;33.42;;
9254;SDS011;4663;49.120;9.730;2023-07-29T01:22:34;38.60;;;36.67;;
9254;SDS011;4663;49.120;9.730;2023-07-29T01:25:01;38.30;;;36.30;;
9254;SDS011;4663;49.120;9.730;2023-07-29T01:27:28;39.85;;;37.70;;
9254;SDS011;4663;49.120;9.730;2023-07-29T01:29:54;44.58;;;42.22;;
9254;SDS011;4663;49.120;9.730;2023-07-29T01:37:41;48.33;;;45.88;;
9254;SDS011;4663;49.120;9.730;2023-07-29T01:40:12;42.53;;;40.33;;
9254;SDS011;4663;49.120;9.730;2023-07-29T01:42:39;43.05;;;40.40;;
9254;SDS011;4663;49.120;9.730;2023-07-29T01:45:04;38.53;;;36.45;;
9254;SDS011;4663;49.120;9.730;2023-07-29T01:47:30;38.70;;;36.60;;
9254;SDS011;4663;49.120;9.730;2023-07-29T01:49:55;35.85;;;33.65;;
9254;SDS011;4663;49.120;9.730;2023-07-29T01:52:21;41.15;;;38.67;;
9254;SDS011;4663;49.120;9.730;2023-07-29T01:54:46;40.20;;;37.95;;
9254;SDS011;4663;49.120;9.730;2023-07-29T01:57:12;40.50;;;38.15;;
9254;SDS011;4663;49.120;9.730;2023-07-29T01:59:37;45.50;;;43.10;;
9254;SDS011;4663;49.120;9.730;2023-07-29T02:02:02;41.28;;;39.05;;
9254;SDS011;4663;49.120;9.730;2023-07-29T02:04:28;44.22;;;42.00;;
9254;SDS011;4663;49.120;9.730;2023-07-29T02:06:53;41.10;;;39.08;;
9254;SDS011;4663;49.120;9.730;2023-07-29T02:09:20;39.85;;;37.88;;
9254;SDS011;4663;49.120;9.730;2023-07-29T02:11:45;38.58;;;36.55;;
9254;SDS011;4663;49.120;9.730;2023-07-29T02:14:10;32.33;;;30.63;;
9254;SDS011;4663;49.120;9.730;2023-07-29T02:16:36;35.88;;;33.42;;
9254;SDS011;4663;49.120;9.730;2023-07-29T02:19:02;41.72;;;39.53;;
9254;SDS011;4663;49.120;9.730;2023-07-29T02:21:28;47.35;;;44.78;;
9254;SDS011;4663;49.120;9.730;2023-07-29T02:23:53;44.53;;;42.03;;
9254;SDS011;4663;49.120;9.730;2023-07-29T02:26:18;43.60;;;41.45;;
9254;SDS011;4663;49.120;9.730;2023-07-29T02:28:44;43.25;;;41.08;;
9254;SDS011;4663;49.120;9.730;2023-07-29T02:33:38;46.45;;;44.05;;
9254;SDS011;4663;49.120;9.730;2023-07-29T02:36:03;45.17;;;42.78;;
9254;SDS011;4663;49.120;9.730;2023-07-29T02:38:28;41.17;;;38.97;;
9254;SDS011;4663;49.120;9.730;2023-07-29T02:40:54;39.05;;;36.95;;
9254;SDS011;4663;49.120;9.730;2023-07-29T02:43:19;38.63;;;36.67;;
9254;SDS011;4663;49.120;9.730;2023-07-29T02:45:44;35.70;;;33.88;;
9254;SDS011;4663;49.120;9.730;2023-07-29T02:48:10;37.25;;;35.28;;
9254;SDS011;4663;49.120;9.730;2023-07-29T02:50:35;37.30;;;35.25;;
9254;SDS011;4663;49.120;9.730;2023-07-29T02:53:00;34.78;;;32.97;;
9254;SDS011;4663;49.120;9.730;2023-07-29T02:55:26;37.25;;;35.42;;
9254;SDS011;4663;49.120;9.730;2023-07-29T02:57:52;38.65;;;36.33;;
9254;SDS011;4663;49.120;9.730;2023-07-29T03:00:17;39.97;;;37.83;;
9254;SDS011;4663;49.120;9.730;2023-07-29T03:02:42;42.08;;;39.22;;
9254;SDS011;4663;49.120;9.730;2023-07-29T03:05:08;41.85;;;39.38;;
9254;SDS011;4663;49.120;9.730;2023-07-29T03:07:33;40.40;;;38.38;;
9254;SDS011;4663;49.120;9.730;2023-07-29T03:09:59;47.88;;;45.20;;
9254;SDS011;4663;49.120;9.730;2023-07-29T03:12:24;50.70;;;47.97;;
9254;SDS011;4663;49.120;9.730;2023-07-29T03:14:50;47.33;;;45.00;;
9254;SDS011;4663;49.120;9.730;2023-07-29T03:17:15;42.90;;;40.65;;
9254;SDS011;4663;49.120;9.730;2023-07-29T03:19:40;46.13;;;43.60;;
9254;SDS011;4663;49.120;9.730;2023-07-29T03:22:06;48.90;;;46.55;;
9254;SDS011;4663;49.120;9.730;2023-07-29T03:24:32;55.08;;;52.42;;
9254;SDS011;4663;49.120;9.730;2023-07-29T03:26:57;55.47;;;52.60;;
9254;SDS011;4663;49.120;9.730;2023-07-29T03:29:23;61.55;;;58.45;;
9254;SDS011;4663;49.120;9.730;2023-07-29T03:31:49;60.88;;;57.88;;
9254;SDS011;4663;49.120;9.730;2023-07-29T03:34:15;63.70;;;60.50;;
9254;SDS011;4663;49.120;9.730;2023-07-29T03:36:40;60.80;;;57.65;;
9254;SDS011;4663;49.120;9.730;2023-07-29T03:39:06;59.00;;;56.05;;
9254;SDS011;4663;49.120;9.730;2023-07-29T03:41:32;62.28;;;58.88;;
9254;SDS011;4663;49.120;9.730;2023-07-29T03:43:58;56.80;;;54.05;;
9254;SDS011;4663;49.120;9.730;2023-07-29T03:46:24;58.67;;;55.72;;
9254;SDS011;4663;49.120;9.730;2023-07-29T03:48:49;60.20;;;57.15;;
9254;SDS011;4663;49.120;9.730;2023-07-29T03:51:15;62.67;;;59.67;;
9254;SDS011;4663;49.120;9.730;2023-07-29T03:53:40;62.95;;;59.83;;
9254;SDS011;4663;49.120;9.730;2023-07-29T03:56:06;55.40;;;52.47;;
9254;SDS011;4663;49.120;9.730;2023-07-29T03:58:32;59.58;;;56.63;;
9254;SDS011;4663;49.120;9.730;2023-07-29T04:00:57;60.78;;;57.80;;
9254;SDS011;4663;49.120;9.730;2023-07-29T04:03:22;60.78;;;57.60;;
9254;SDS011;4663;49.120;9.730;2023-07-29T04:05:48;60.80;;;57.88;;
9254;SDS011;4663;49.120;9.730;2023-07-29T04:08:13;63.45;;;60.13;;
9254;SDS011;4663;49.120;9.730;2023-07-29T04:10:38;63.92;;;59.78;;
9254;SDS011;4663;49.120;9.730;2023-07-29T04:13:04;62.47;;;59.22;;
9254;SDS011;4663;49.120;9.730;2023-07-29T04:15:30;55.70;;;52.85;;
9254;SDS011;4663;49.120;9.730;2023-07-29T04:17:55;54.05;;;51.30;;
9254;SDS011;4663;49.120;9.730;2023-07-29T04:20:21;53.10;;;50.15;;
9254;SDS011;4663;49.120;9.730;2023-07-29T04:22:46;52.13;;;49.42;;
9254;SDS011;4663;49.120;9.730;2023-07-29T04:25:11;51.42;;;48.95;;
9254;SDS011;4663;49.120;9.730;2023-07-29T04:27:38;46.40;;;44.08;;
9254;SDS011;4663;49.120;9.730;2023-07-29T04:30:03;50.13;;;47.28;;
9254;SDS011;4663;49.120;9.730;2023-07-29T04:32:29;46.30;;;43.88;;
9254;SDS011;4663;49.120;9.730;2023-07-29T04:34:55;45.60;;;42.70;;
9254;SDS011;4663;49.120;9.730;2023-07-29T04:37:20;44.95;;;42.65;;
9254;SDS011;4663;49.120;9.730;2023-07-29T04:39:45;38.75;;;36.90;;
9254;SDS011;4663;49.120;9.730;2023-07-29T04:42:11;39.28;;;37.13;;
9254;SDS011;4663;49.120;9.730;2023-07-29T04:44:37;38.13;;;36.30;;
9254;SDS011;4663;49.120;9.730;2023-07-29T04:47:02;40.10;;;38.00;;
9254;SDS011;4663;49.120;9.730;2023-07-29T04:49:28;41.67;;;39.50;;
9254;SDS011;4663;49.120;9.730;2023-07-29T04:51:53;37.00;;;35.17;;
9254;SDS011;4663;49.120;9.730;2023-07-29T04:54:18;42.65;;;40.50;;
9254;SDS011;4663;49.120;9.730;2023-07-29T04:56:45;43.08;;;40.60;;
9254;SDS011;4663;49.120;9.730;2023-07-29T04:59:11;45.92;;;43.65;;
9254;SDS011;4663;49.120;9.730;2023-07-29T05:01:38;44.15;;;41.92;;
9254;SDS011;4663;49.120;9.730;2023-07-29T05:04:03;46.58;;;44.33;;
9254;SDS011;4663;49.120;9.730;2023-07-29T05:06:29;44.13;;;41.78;;
9254;SDS011;4663;49.120;9.730;2023-07-29T05:08:56;55.03;;;51.92;;
9254;SDS011;4663;49.120;9.730;2023-07-29T05:11:23;46.40;;;44.13;;
9254;SDS011;4663;49.120;9.730;2023-07-29T05:13:50;48.40;;;46.08;;
9254;SDS011;4663;49.120;9.730;2023-07-29T05:16:15;42.42;;;40.17;;
9254;SDS011;4663;49.120;9.730;2023-07-29T05:18:41;41.70;;;39.30;;
9254;SDS011;4663;49.120;9.730;2023-07-29T05:21:06;38.15;;;35.97;;
9254;SDS011;4663;49.120;9.730;2023-07-29T05:23:33;37.60;;;35.70;;
9254;SDS011;4663;49.120;9.730;2023-07-29T05:25:59;36.80;;;34.90;;
9254;SDS011;4663;49.120;9.730;2023-07-29T05:28:24;34.17;;;32.47;;
9254;SDS011;4663;49.120;9.730;2023-07-29T05:30:49;36.97;;;35.08;;
9254;SDS011;4663;49.120;9.730;2023-07-29T05:33:15;41.03;;;39.00;;
9254;SDS011;4663;49.120;9.730;2023-07-29T05:35:40;39.00;;;37.10;;
9254;SDS011;4663;49.120;9.730;2023-07-29T05:38:06;37.30;;;35.35;;
9254;SDS011;4663;49.120;9.730;2023-07-29T05:40:33;33.97;;;32.30;;
9254;SDS011;4663;49.120;9.730;2023-07-29T05:42:59;35.72;;;33.72;;
9254;SDS011;4663;49.120;9.730;2023-07-29T05:45:24;36.95;;;34.95;;
9254;SDS011;4663;49.120;9.730;2023-07-29T05:47:50;34.47;;;32.67;;
9254;SDS011;4663;49.120;9.730;2023-07-29T05:50:15;38.58;;;36.72;;
9254;SDS011;4663;49.120;9.730;2023-07-29T05:52:41;43.95;;;41.83;;
9254;SDS011;4663;49.120;9.730;2023-07-29T05:55:06;40.70;;;38.75;;
9254;SDS011;4663;49.120;9.730;2023-07-29T05:57:32;40.72;;;38.17;;
9254;SDS011;4663;49.120;9.730;2023-07-29T05:59:57;43.35;;;41.25;;
9254;SDS011;4663;49.120;9.730;2023-07-29T06:02:23;34.83;;;32.75;;
9254;SDS011;4663;49.120;9.730;2023-07-29T06:04:48;33.45;;;31.70;;
9254;SDS011;4663;49.120;9.730;2023-07-29T06:07:13;32.10;;;30.42;;
9254;SDS011;4663;49.120;9.730;2023-07-29T06:09:39;31.70;;;30.17;;
9254;SDS011;4663;49.120;9.730;2023-07-29T06:12:05;49.92;;;47.22;;
9254;SDS011;4663;49.120;9.730;2023-07-29T06:14:31;38.75;;;36.63;;
9254;SDS011;4663;49.120;9.730;2023-07-29T06:16:56;42.05;;;39.92;;
9254;SDS011;4663;49.120;9.730;2023-07-29T06:19:21;47.15;;;44.80;;
9254;SDS011;4663;49.120;9.730;2023-07-29T06:21:47;46.53;;;43.97;;
9254;SDS011;4663;49.120;9.730;2023-07-29T06:24:13;47.03;;;44.75;;
9254;SDS011;4663;49.120;9.730;2023-07-29T06:26:38;49.50;;;46.97;;
9254;SDS011;4663;49.120;9.730;2023-07-29T06:29:04;47.95;;;45.55;;
9254;SDS011;4663;49.120;9.730;2023-07-29T06:31:29;48.70;;;46.20;;
9254;SDS011;4663;49.120;9.730;2023-07-29T06:33:55;53.70;;;51.08;;
9254;SDS011;4663;49.120;9.730;2023-07-29T06:36:20;48.17;;;45.63;;
9254;SDS011;4663;49.120;9.730;2023-07-29T06:38:46;37.22;;;35.30;;
9254;SDS011;4663;49.120;9.730;2023-07-29T06:41:11;33.10;;;31.40;;
9254;SDS011;4663;49.120;9.730;2023-07-29T06:43:37;29.10;;;27.70;;
9254;SDS011;4663;49.120;9.730;2023-07-29T06:46:02;26.13;;;24.83;;
9254;SDS011;4663;49.120;9.730;2023-07-29T06:48:28;24.10;;;22.85;;
9254;SDS011;4663;49.120;9.730;2023-07-29T06:50:53;25.48;;;24.20;;
9254;SDS011;4663;49.120;9.730;2023-07-29T06:53:20;23.67;;;22.48;;
9254;SDS011;4663;49.120;9.730;2023-07-29T06:55:46;22.02;;;20.92;;
9254;SDS011;4663;49.120;9.730;2023-07-29T06:58:11;22.27;;;21.17;;
9254;SDS011;4663;49.120;9.730;2023-07-29T07:00:37;24.25;;;22.98;;
9254;SDS011;4663;49.120;9.730;2023-07-29T07:03:02;24.70;;;23.40;;
9254;SDS011;4663;49.120;9.730;2023-07-29T07:05:27;25.35;;;24.00;;
9254;SDS011;4663;49.120;9.730;2023-07-29T07:07:53;27.13;;;25.70;;
9254;SDS011;4663;49.120;9.730;2023-07-29T07:10:18;27.50;;;25.90;;
9254;SDS011;4663;49.120;9.730;2023-07-29T07:12:44;28.20;;;26.60;;
9254;SDS011;4663;49.120;9.730;2023-07-29T07:15:10;27.77;;;26.27;;
9254;SDS011;4663;49.120;9.730;2023-07-29T07:17:35;28.45;;;26.80;;
9254;SDS011;4663;49.120;9.730;2023-07-29T07:20:03;28.75;;;27.15;;
9254;SDS011;4663;49.120;9.730;2023-07-29T07:22:30;29.52;;;28.00;;
9254;SDS011;4663;49.120;9.730;2023-07-29T07:24:55;23.50;;;22.27;;
9254;SDS011;4663;49.120;9.730;2023-07-29T07:27:20;25.98;;;24.35;;
9254;SDS011;4663;49.120;9.730;2023-07-29T07:29:46;23.23;;;22.02;;
9254;SDS011;4663;49.120;9.730;2023-07-29T07:32:11;26.27;;;24.80;;
9254;SDS011;4663;49.120;9.730;2023-07-29T07:34:36;25.20;;;23.90;;
9254;SDS011;4663;49.120;9.730;2023-07-29T07:37:02;27.55;;;26.15;;
9254;SDS011;4663;49.120;9.730;2023-07-29T07:39:28;27.23;;;25.77;;
9254;SDS011;4663;49.120;9.730;2023-07-29T07:41:54;27.95;;;26.30;;
9254;SDS011;4663;49.120;9.730;2023-07-29T07:44:20;25.40;;;24.08;;
9254;SDS011;4663;49.120;9.730;2023-07-29T07:46:45;29.23;;;27.77;;
9254;SDS011;4663;49.120;9.730;2023-07-29T07:49:11;25.33;;;24.13;;
9254;SDS011;4663;49.120;9.730;2023-07-29T07:51:37;23.40;;;22.27;;
9254;SDS011;4663;49.120;9.730;2023-07-29T07:54:03;24.35;;;23.15;;
9254;SDS011;4663;49.120;9.730;2023-07-29T07:56:28;23.10;;;21.90;;
9254;SDS011;4663;49.120;9.730;2023-07-29T07:58:53;26.02;;;24.42;;
9254;SDS011;4663;49.120;9.730;2023-07-29T08:01:19;22.95;;;21.75;;
9254;SDS011;4663;49.120;9.730;2023-07-29T08:03:44;25.52;;;24.17;;
9254;SDS011;4663;49.120;9.730;2023-07-29T08:06:10;23.63;;;22.33;;
9254;SDS011;4663;49.120;9.730;2023-07-29T08:08:35;26.52;;;24.63;;
9254;SDS011;4663;49.120;9.730;2023-07-29T08:11:00;24.83;;;23.63;;
9254;SDS011;4663;49.120;9.730;2023-07-29T08:13:26;28.13;;;26.65;;
9254;SDS011;4663;49.120;9.730;2023-07-29T08:15:52;26.98;;;25.48;;
9254;SDS011;4663;49.120;9.730;2023-07-29T08:18:18;25.73;;;24.38;;
9254;SDS011;4663;49.120;9.730;2023-07-29T08:20:54;25.92;;;24.67;;
9254;SDS011;4663;49.120;9.730;2023-07-29T08:23:20;31.63;;;29.38;;
9254;SDS011;4663;49.120;9.730;2023-07-29T08:25:50;26.20;;;24.80;;
9254;SDS011;4663;49.120;9.730;2023-07-29T08:28:21;26.90;;;25.27;;
9254;SDS011;4663;49.120;9.730;2023-07-29T08:30:47;28.20;;;26.63;;
9254;SDS011;4663;49.120;9.730;2023-07-29T08:33:12;27.88;;;26.38;;
9254;SDS011;4663;49.120;9.730;2023-07-29T08:35:38;27.65;;;26.15;;
9254;SDS011;4663;49.120;9.730;2023-07-29T08:38:03;27.13;;;25.33;;
9254;SDS011;4663;49.120;9.730;2023-07-29T08:40:29;26.27;;;24.73;;
9254;SDS011;4663;49.120;9.730;2023-07-29T08:42:56;26.75;;;25.23;;
9254;SDS011;4663;49.120;9.730;2023-07-29T08:45:24;39.42;;;37.42;;
9254;SDS011;4663;49.120;9.730;2023-07-29T08:47:50;28.05;;;26.60;;
9254;SDS011;4663;49.120;9.730;2023-07-29T08:50:22;31.15;;;29.55;;
9254;SDS011;4663;49.120;9.730;2023-07-29T08:52:49;34.83;;;33.05;;
9254;SDS011;4663;49.120;9.730;2023-07-29T08:55:17;36.10;;;34.40;;
9254;SDS011;4663;49.120;9.730;2023-07-29T08:57:43;33.92;;;32.33;;
9254;SDS011;4663;49.120;9.730;2023-07-29T09:00:10;32.90;;;31.23;;
9254;SDS011;4663;49.120;9.730;2023-07-29T09:02:36;29.67;;;28.30;;
9254;SDS011;4663;49.120;9.730;2023-07-29T09:05:01;32.15;;;30.65;;
9254;SDS011;4663;49.120;9.730;2023-07-29T09:07:27;33.15;;;31.60;;
9254;SDS011;4663;49.120;9.730;2023-07-29T09:09:53;29.80;;;28.40;;
9254;SDS011;4663;49.120;9.730;2023-07-29T09:12:19;29.92;;;28.38;;
9254;SDS011;4663;49.120;9.730;2023-07-29T09:14:45;31.17;;;29.67;;
9254;SDS011;4663;49.120;9.730;2023-07-29T09:17:10;31.55;;;29.98;;
9254;SDS011;4663;49.120;9.730;2023-07-29T09:19:35;31.10;;;29.60;;
9254;SDS011;4663;49.120;9.730;2023-07-29T09:22:01;34.00;;;32.38;;
9254;SDS011;4663;49.120;9.730;2023-07-29T09:24:26;30.90;;;29.35;;
9254;SDS011;4663;49.120;9.730;2023-07-29T09:26:54;31.02;;;29.52;;
9254;SDS011;4663;49.120;9.730;2023-07-29T09:29:23;30.65;;;29.15;;
9254;SDS011;4663;49.120;9.730;2023-07-29T09:31:48;31.58;;;29.90;;
9254;SDS011;4663;49.120;9.730;2023-07-29T09:34:15;31.60;;;30.10;;
9254;SDS011;4663;49.120;9.730;2023-07-29T09:36:42;31.75;;;30.13;;
9254;SDS011;4663;49.120;9.730;2023-07-29T09:39:10;32.72;;;31.02;;
9254;SDS011;4663;49.120;9.730;2023-07-29T09:41:38;32.17;;;30.60;;
9254;SDS011;4663;49.120;9.730;2023-07-29T09:44:03;32.75;;;31.15;;
9254;SDS011;4663;49.120;9.730;2023-07-29T09:46:36;30.35;;;28.73;;
9254;SDS011;4663;49.120;9.730;2023-07-29T09:49:03;34.13;;;32.42;;
9254;SDS011;4663;49.120;9.730;2023-07-29T09:51:29;32.42;;;30.70;;
9254;SDS011;4663;49.120;9.730;2023-07-29T09:53:55;32.85;;;31.25;;
9254;SDS011;4663;49.120;9.730;2023-07-29T09:56:24;36.08;;;34.38;;
9254;SDS011;4663;49.120;9.730;2023-07-29T09:58:51;34.40;;;32.70;;
9254;SDS011;4663;49.120;9.730;2023-07-29T10:01:17;35.20;;;33.50;;
9254;SDS011;4663;49.120;9.730;2023-07-29T10:03:44;35.15;;;33.45;;
9254;SDS011;4663;49.120;9.730;2023-07-29T10:06:09;42.53;;;40.45;;
9254;SDS011;4663;49.120;9.730;2023-07-29T10:08:36;45.50;;;43.30;;
9254;SDS011;4663;49.120;9.730;2023-07-29T10:11:07;42.15;;;40.08;;
9254;SDS011;4663;49.120;9.730;2023-07-29T10:13:33;42.47;;;40.22;;
9254;SDS011;4663;49.120;9.730;2023-07-29T10:15:59;45.42;;;43.05;;
9254;SDS011;4663;49.120;9.730;2023-07-29T10:18:27;46.20;;;44.00;;
9254;SDS011;4663;49.120;9.730;2023-07-29T10:20:54;41.83;;;39.78;;
9254;SDS011;4663;49.120;9.730;2023-07-29T10:23:22;36.65;;;34.85;;
9254;SDS011;4663;49.120;9.730;2023-07-29T10:25:53;37.20;;;35.30;;
9254;SDS011;4663;49.120;9.730;2023-07-29T10:28:23;35.45;;;33.75;;
9254;SDS011;4663;49.120;9.730;2023-07-29T10:30:51;34.83;;;33.10;;
9254;SDS011;4663;49.120;9.730;2023-07-29T10:33:17;33.40;;;31.75;;
9254;SDS011;4663;49.120;9.730;2023-07-29T10:35:42;37.53;;;35.50;;
9254;SDS011;4663;49.120;9.730;2023-07-29T10:38:08;35.30;;;33.60;;
9254;SDS011;4663;49.120;9.730;2023-07-29T10:40:51;36.22;;;34.45;;
9254;SDS011;4663;49.120;9.730;2023-07-29T10:43:29;34.33;;;32.67;;
9254;SDS011;4663;49.120;9.730;2023-07-29T10:45:58;32.13;;;30.52;;
9254;SDS011;4663;49.120;9.730;2023-07-29T10:48:41;33.05;;;31.35;;
9254;SDS011;4663;49.120;9.730;2023-07-29T10:53:54;34.42;;;32.35;;
9254;SDS011;4663;49.120;9.730;2023-07-29T10:56:27;37.33;;;35.00;;
9254;SDS011;4663;49.120;9.730;2023-07-29T10:59:52;34.60;;;32.90;;
9254;SDS011;4663;49.120;9.730;2023-07-29T11:01:52;34.40;;;32.78;;
9254;SDS011;4663;49.120;9.730;2023-07-29T11:09:41;35.70;;;33.95;;
9254;SDS011;4663;49.120;9.730;2023-07-29T11:17:30;34.20;;;32.58;;
9254;SDS011;4663;49.120;9.730;2023-07-29T11:20:01;39.20;;;37.40;;
9254;SDS011;4663;49.120;9.730;2023-07-29T11:22:28;34.78;;;33.08;;
9254;SDS011;4663;49.120;9.730;2023-07-29T11:24:54;35.38;;;33.47;;
9254;SDS011;4663;49.120;9.730;2023-07-29T11:27:19;36.80;;;35.13;;
9254;SDS011;4663;49.120;9.730;2023-07-29T11:29:44;34.78;;;33.13;;
9254;SDS011;4663;49.120;9.730;2023-07-29T11:32:10;37.33;;;35.47;;
9254;SDS011;4663;49.120;9.730;2023-07-29T11:34:35;45.50;;;43.35;;
9254;SDS011;4663;49.120;9.730;2023-07-29T11:37:01;42.88;;;40.88;;
9254;SDS011;4663;49.120;9.730;2023-07-29T11:39:26;40.17;;;37.88;;
9254;SDS011;4663;49.120;9.730;2023-07-29T11:41:52;41.55;;;39.60;;
9254;SDS011;4663;49.120;9.730;2023-07-29T11:44:17;39.00;;;37.15;;
9254;SDS011;4663;49.120;9.730;2023-07-29T11:46:43;36.08;;;34.28;;
9254;SDS011;4663;49.120;9.730;2023-07-29T11:49:09;35.72;;;34.00;;
9254;SDS011;4663;49.120;9.730;2023-07-29T11:51:34;39.58;;;37.65;;
9254;SDS011;4663;49.120;9.730;2023-07-29T11:54:00;42.67;;;40.53;;
9254;SDS011;4663;49.120;9.730;2023-07-29T11:56:25;40.03;;;38.15;;
9254;SDS011;4663;49.120;9.730;2023-07-29T11:58:51;39.97;;;38.08;;
9254;SDS011;4663;49.120;9.730;2023-07-29T12:01:18;45.20;;;43.05;;
9254;SDS011;4663;49.120;9.730;2023-07-29T12:03:44;42.58;;;40.58;;
9254;SDS011;4663;49.120;9.730;2023-07-29T12:06:10;42.13;;;40.15;;
9254;SDS011;4663;49.120;9.730;2023-07-29T12:08:35;45.10;;;42.97;;
9254;SDS011;4663;49.120;9.730;2023-07-29T12:11:01;39.90;;;38.05;;
9254;SDS011;4663;49.120;9.730;2023-07-29T12:13:26;40.70;;;38.80;;
9254;SDS011;4663;49.120;9.730;2023-07-29T12:15:52;45.35;;;43.20;;
9254;SDS011;4663;49.120;9.730;2023-07-29T12:18:32;46.17;;;43.78;;
9254;SDS011;4663;49.120;9.730;2023-07-29T12:20:58;45.53;;;43.33;;
9254;SDS011;4663;49.120;9.730;2023-07-29T12:23:24;45.83;;;43.47;;
9254;SDS011;4663;49.120;9.730;2023-07-29T12:25:51;44.33;;;42.25;;
9254;SDS011;4663;49.120;9.730;2023-07-29T12:28:22;46.42;;;44.15;;
9254;SDS011;4663;49.120;9.730;2023-07-29T12:30:47;44.13;;;42.03;;
9254;SDS011;4663;49.120;9.730;2023-07-29T12:33:29;44.35;;;42.22;;
9254;SDS011;4663;49.120;9.730;2023-07-29T12:35:58;40.20;;;38.20;;
9254;SDS011;4663;49.120;9.730;2023-07-29T12:38:27;42.15;;;40.15;;
9254;SDS011;4663;49.120;9.730;2023-07-29T12:40:53;42.85;;;40.70;;
9254;SDS011;4663;49.120;9.730;2023-07-29T12:43:19;37.42;;;35.63;;
9254;SDS011;4663;49.120;9.730;2023-07-29T12:45:45;33.05;;;31.45;;
9254;SDS011;4663;49.120;9.730;2023-07-29T12:48:11;37.35;;;35.25;;
9254;SDS011;4663;49.120;9.730;2023-07-29T12:50:40;37.97;;;36.05;;
9254;SDS011;4663;49.120;9.730;2023-07-29T12:53:06;32.25;;;30.75;;
9254;SDS011;4663;49.120;9.730;2023-07-29T12:55:32;32.25;;;30.75;;
9254;SDS011;4663;49.120;9.730;2023-07-29T12:57:58;33.33;;;31.73;;
9254;SDS011;4663;49.120;9.730;2023-07-29T13:00:24;31.10;;;29.60;;
9254;SDS011;4663;49.120;9.730;2023-07-29T13:02:49;33.72;;;32.10;;
9254;SDS011;4663;49.120;9.730;2023-07-29T13:05:15;37.03;;;35.20;;
9254;SDS011;4663;49.120;9.730;2023-07-29T13:07:42;23.75;;;22.42;;
9254;SDS011;4663;49.120;9.730;2023-07-29T13:10:08;29.77;;;28.38;;
9254;SDS011;4663;49.120;9.730;2023-07-29T13:12:34;29.33;;;28.00;;
9254;SDS011;4663;49.120;9.730;2023-07-29T13:15:00;21.58;;;20.52;;
9254;SDS011;4663;49.120;9.730;2023-07-29T13:17:25;23.45;;;22.35;;
9254;SDS011;4663;49.120;9.730;2023-07-29T13:19:51;26.08;;;24.88;;
9254;SDS011;4663;49.120;9.730;2023-07-29T13:22:16;30.05;;;28.58;;
9254;SDS011;4663;49.120;9.730;2023-07-29T13:24:42;27.58;;;26.27;;
9254;SDS011;4663;49.120;9.730;2023-07-29T13:27:08;31.25;;;29.65;;
9254;SDS011;4663;49.120;9.730;2023-07-29T13:29:33;34.00;;;32.35;;
9254;SDS011;4663;49.120;9.730;2023-07-29T13:31:58;34.45;;;32.63;;
9254;SDS011;4663;49.120;9.730;2023-07-29T13:34:24;33.65;;;31.63;;
9254;SDS011;4663;49.120;9.730;2023-07-29T13:36:49;30.20;;;28.80;;
9254;SDS011;4663;49.120;9.730;2023-07-29T13:39:15;31.15;;;29.52;;
9254;SDS011;4663;49.120;9.730;2023-07-29T13:41:40;34.47;;;32.75;;
9254;SDS011;4663;49.120;9.730;2023-07-29T13:44:06;26.98;;;25.75;;
9254;SDS011;4663;49.120;9.730;2023-07-29T13:46:31;23.00;;;21.90;;
9254;SDS011;4663;49.120;9.730;2023-07-29T13:48:57;26.05;;;24.85;;
9254;SDS011;4663;49.120;9.730;2023-07-29T13:51:22;23.23;;;22.05;;
9254;SDS011;4663;49.120;9.730;2023-07-29T13:53:47;27.33;;;26.02;;
9254;SDS011;4663;49.120;9.730;2023-07-29T13:56:13;31.70;;;30.10;;
9254;SDS011;4663;49.120;9.730;2023-07-29T13:58:39;26.63;;;25.33;;
9254;SDS011;4663;49.120;9.730;2023-07-29T14:01:05;25.15;;;23.95;;
9254;SDS011;4663;49.120;9.730;2023-07-29T14:03:30;27.48;;;26.17;;
9254;SDS011;4663;49.120;9.730;2023-07-29T14:05:56;25.88;;;24.67;;
9254;SDS011;4663;49.120;9.730;2023-07-29T14:08:21;22.67;;;21.58;;
9254;SDS011;4663;49.120;9.730;2023-07-29T14:10:49;24.63;;;23.38;;
9254;SDS011;4663;49.120;9.730;2023-07-29T14:13:15;30.13;;;28.63;;
9254;SDS011;4663;49.120;9.730;2023-07-29T14:15:40;25.73;;;24.52;;
9254;SDS011;4663;49.120;9.730;2023-07-29T14:18:06;24.02;;;22.88;;
9254;SDS011;4663;49.120;9.730;2023-07-29T14:20:31;24.45;;;23.35;;
9254;SDS011;4663;49.120;9.730;2023-07-29T14:22:57;23.95;;;22.65;;
9254;SDS011;4663;49.120;9.730;2023-07-29T14:25:23;24.63;;;23.35;;
9254;SDS011;4663;49.120;9.730;2023-07-29T14:27:48;24.38;;;23.02;;
9254;SDS011;4663;49.120;9.730;2023-07-29T14:30:14;28.85;;;27.50;;
9254;SDS011;4663;49.120;9.730;2023-07-29T14:32:39;26.75;;;25.35;;
9254;SDS011;4663;49.120;9.730;2023-07-29T14:35:05;24.35;;;23.23;;
9254;SDS011;4663;49.120;9.730;2023-07-29T14:37:31;30.08;;;28.65;;
9254;SDS011;4663;49.120;9.730;2023-07-29T14:40:00;31.77;;;30.05;;
9254;SDS011;4663;49.120;9.730;2023-07-29T14:42:26;30.48;;;29.08;;
9254;SDS011;4663;49.120;9.730;2023-07-29T14:44:52;30.65;;;29.13;;
9254;SDS011;4663;49.120;9.730;2023-07-29T14:47:17;33.25;;;31.65;;
9254;SDS011;4663;49.120;9.730;2023-07-29T14:49:43;33.78;;;32.20;;
9254;SDS011;4663;49.120;9.730;2023-07-29T14:52:09;33.83;;;32.25;;
9254;SDS011;4663;49.120;9.730;2023-07-29T14:54:35;36.17;;;34.13;;
9254;SDS011;4663;49.120;9.730;2023-07-29T14:57:00;38.17;;;36.38;;
9254;SDS011;4663;49.120;9.730;2023-07-29T14:59:25;42.80;;;40.55;;
9254;SDS011;4663;49.120;9.730;2023-07-29T15:01:51;40.70;;;38.75;;
9254;SDS011;4663;49.120;9.730;2023-07-29T15:04:16;36.78;;;34.92;;